Time;durP1;ratioP1;P1;durP2;ratioP2;P2;SDS_P1;SDS_P2;PMS_P1;PMS_P2;Temp;Humidity;BMP_temperature;BMP_pressure;BME280_temperature;BME280_humidity;BME280_pressure;Samples;Min_cycle;Max_cycle;Signal;HPM_P1;HPM_P2
2021/10/24 00:01:34;;;;;;;8.20;6.95;;;;;;;7.97;54.50;100847.98;1680206;84;21071;-62
2021/10/24 00:04:02;;;;;;;8.27;6.53;;;;;;;7.98;54.51;100845.66;1697278;83;21026;-60
2021/10/24 00:06:28;;;;;;;8.58;5.42;;;;;;;8.01;54.56;100852.48;1686531;84;21087;-61
2021/10/24 00:08:54;;;;;;;8.73;6.53;;;;;;;8.04;54.64;100846.84;1658046;85;21110;-62
2021/10/24 00:11:20;;;;;;;6.95;5.60;;;;;;;8.04;55.03;100847.34;1697819;83;21195;-60
2021/10/24 00:13:47;;;;;;;8.30;5.30;;;;;;;8.01;55.07;100843.20;1699086;83;21627;-60
2021/10/24 00:16:14;;;;;;;8.33;5.40;;;;;;;8.01;55.13;100845.03;1687043;84;21068;-62
2021/10/24 00:18:41;;;;;;;7.10;4.25;;;;;;;8.04;55.24;100848.67;1675729;84;22191;-64
2021/10/24 00:21:07;;;;;;;;;;;;;;;8.03;55.63;100842.54;1674902;84;21070;-65
2021/10/24 00:23:33;;;;;;;5.70;4.63;;;;;;;8.05;55.70;100844.53;1671994;84;20145;-64
2021/10/24 00:25:59;;;;;;;9.38;5.58;;;;;;;8.01;55.74;100845.84;1677117;84;20977;-70
2021/10/24 00:28:25;;;;;;;7.33;4.80;;;;;;;8.05;55.75;100842.39;1676688;84;20993;-61
2021/10/24 00:30:52;;;;;;;7.30;4.75;;;;;;;8.10;55.70;100842.24;1698045;84;21009;-64
2021/10/24 00:33:18;;;;;;;;;;;;;;;8.14;55.63;100848.07;1679994;84;20950;-66
2021/10/24 00:35:45;;;;;;;10.03;4.93;;;;;;;8.15;55.67;100842.57;1678876;84;20131;-65
2021/10/24 00:38:12;;;;;;;5.50;4.57;;;;;;;8.12;55.79;100844.23;1659257;85;21404;-65
2021/10/24 00:40:39;;;;;;;9.23;5.03;;;;;;;8.14;55.88;100840.10;1683628;83;21036;-65
2021/10/24 00:43:05;;;;;;;6.30;5.12;;;;;;;8.16;56.05;100838.94;1688594;83;21027;-61
2021/10/24 00:45:32;;;;;;;8.07;5.40;;;;;;;8.16;56.27;100847.41;1684269;83;21357;-69
2021/10/24 00:47:58;;;;;;;8.33;5.30;;;;;;;8.12;56.15;100844.23;1672420;84;20997;-63
2021/10/24 00:50:26;;;;;;;9.60;6.10;;;;;;;8.13;56.17;100849.05;1675971;84;21036;-64
2021/10/24 00:52:54;;;;;;;8.17;5.43;;;;;;;8.14;56.43;100848.89;1680861;83;21454;-65
2021/10/24 00:55:23;;;;;;;8.23;6.47;;;;;;;8.15;56.62;100849.72;1677872;84;21536;-64
2021/10/24 00:57:50;;;;;;;14.20;6.00;;;;;;;8.17;56.42;100855.70;1681273;83;21035;-68
2021/10/24 01:00:17;;;;;;;10.57;6.03;;;;;;;8.18;56.41;100860.03;1684208;83;21054;-67
2021/10/24 01:02:45;;;;;;;10.03;5.83;;;;;;;8.17;56.50;100858.35;1655263;84;20994;-62
2021/10/24 01:05:14;;;;;;;6.67;4.70;;;;;;;8.15;56.80;100861.16;1669522;84;21009;-63
2021/10/24 01:07:45;;;;;;;8.87;5.67;;;;;;;8.12;56.68;100862.00;1675394;84;21022;-62
2021/10/24 01:10:15;;;;;;;10.67;5.63;;;;;;;8.11;56.97;100865.64;1666511;84;20993;-66
2021/10/24 01:12:50;;;;;;;5.97;5.07;;;;;;;8.12;56.87;100869.47;1674597;84;21022;-65
2021/10/24 01:15:18;;;;;;;6.07;4.67;;;;;;;8.11;56.83;100872.27;1675580;85;21637;-62
2021/10/24 01:17:48;;;;;;;8.93;5.13;;;;;;;8.11;56.87;100876.25;1637453;85;20967;-63
2021/10/24 01:22:36;;;;;;;8.23;4.93;;;;;;;8.19;57.04;100884.25;1795010;78;22256;-71
2021/10/24 01:25:07;;;;;;;4.17;3.33;;;;;;;8.13;57.03;100881.73;1728428;83;21105;-65
2021/10/24 01:27:38;;;;;;;6.30;4.27;;;;;;;8.14;57.09;100884.73;1717475;83;21000;-64
2021/10/24 01:30:07;;;;;;;5.50;3.83;;;;;;;8.16;57.14;100883.26;1715721;83;21506;-63
2021/10/24 01:32:35;;;;;;;5.17;3.67;;;;;;;8.13;57.25;100896.84;1721321;82;21043;-68
2021/10/24 01:35:04;;;;;;;6.67;3.73;;;;;;;8.09;57.39;100891.52;1729964;81;20958;-65
2021/10/24 01:37:40;;;;;;;7.17;4.00;;;;;;;7.94;57.45;100874.02;1722256;81;20971;-63
2021/10/24 01:40:10;;;;;;;5.80;4.03;;;;;;;8.04;57.68;100890.65;1725545;81;21607;-62
2021/10/24 01:42:53;;;;;;;6.40;3.97;;;;;;;8.03;57.60;100887.67;1712801;81;20971;-65
2021/10/24 01:45:23;;;;;;;8.23;4.10;;;;;;;8.03;57.59;100891.66;1699358;82;21182;-69
2021/10/24 01:47:50;;;;;;;5.73;4.00;;;;;;;8.05;57.72;100884.86;1698142;83;21429;-67
2021/10/24 01:50:17;;;;;;;4.63;3.80;;;;;;;8.04;57.68;100891.16;1702080;83;20976;-64
2021/10/24 01:52:45;;;;;;;6.40;4.65;;;;;;;8.04;57.75;100889.31;1709780;83;21000;-62
2021/10/24 01:55:13;;;;;;;6.53;4.03;;;;;;;8.03;57.86;100890.83;1687265;82;21027;-64
2021/10/24 01:57:45;;;;;;;4.63;3.97;;;;;;;8.00;57.90;100898.59;1693124;83;20967;-62
2021/10/24 02:00:12;;;;;;;5.80;4.27;;;;;;;7.98;58.08;100899.25;1686096;83;20995;-63
2021/10/24 02:02:46;;;;;;;6.33;4.20;;;;;;;7.98;58.08;100896.09;1731004;82;20994;-64
2021/10/24 02:05:21;;;;;;;6.37;4.97;;;;;;;7.95;58.20;100899.08;1731296;82;21062;-61
2021/10/24 02:07:49;;;;;;;5.73;3.90;;;;;;;7.94;58.28;100900.05;1725408;82;20978;-67
2021/10/24 02:10:17;;;;;;;4.92;3.30;;;;;;;7.91;58.37;100900.86;1716249;81;20988;-64
2021/10/24 02:12:44;;;;;;;6.00;3.93;;;;;;;7.91;58.40;100900.86;1716039;81;21498;-63
2021/10/24 02:15:12;;;;;;;5.60;4.23;;;;;;;7.89;58.45;100902.38;1727958;81;20959;-61
2021/10/24 02:17:40;;;;;;;3.50;3.00;;;;;;;7.88;58.50;100907.83;1740423;81;21406;-63
2021/10/24 02:20:09;;;;;;;7.70;4.53;;;;;;;7.86;58.80;100905.33;1722317;81;21488;-62
2021/10/24 02:22:38;;;;;;;6.90;3.37;;;;;;;7.86;58.89;100917.27;1699037;83;21526;-64
2021/10/24 02:25:07;;;;;;;5.53;3.60;;;;;;;7.84;58.90;100918.43;1713461;82;21612;-63
2021/10/24 02:27:34;;;;;;;4.20;3.03;;;;;;;7.83;59.23;100914.92;1721458;82;21376;-63
2021/10/24 02:30:01;;;;;;;6.58;3.70;;;;;;;7.80;59.23;100916.58;1717658;82;21488;-64
2021/10/24 02:32:32;;;;;;;8.70;4.40;;;;;;;7.79;59.20;100920.20;1717588;82;20950;-62
2021/10/24 02:35:00;;;;;;;4.20;3.80;;;;;;;7.78;59.60;100919.88;1689373;82;20954;-64
2021/10/24 02:37:29;;;;;;;7.40;4.77;;;;;;;7.73;59.73;100922.16;1627070;86;21491;-63
2021/10/24 02:39:55;;;;;;;12.82;3.67;;;;;;;7.68;59.86;100918.63;1695947;83;21065;-62
2021/10/24 02:42:21;;;;;;;9.93;3.92;;;;;;;7.73;59.81;100916.35;1702996;83;20962;-66
2021/10/24 02:44:47;;;;;;;6.05;4.08;;;;;;;7.85;59.59;100927.53;1711956;82;21015;-63
2021/10/24 02:47:13;;;;;;;5.72;3.17;;;;;;;7.89;59.59;100928.06;1721173;82;21104;-66
2021/10/24 02:49:40;;;;;;;8.73;4.73;;;;;;;7.89;59.68;100934.22;1721955;83;20978;-64
2021/10/24 02:52:06;;;;;;;5.85;3.10;;;;;;;7.89;59.71;100932.05;1720352;82;21454;-65
2021/10/24 02:54:34;;;;;;;5.07;3.70;;;;;;;7.89;59.75;100938.20;1721959;82;20982;-66
2021/10/24 02:57:05;;;;;;;6.60;4.07;;;;;;;7.86;59.86;100941.66;1687267;82;21132;-72
2021/10/24 02:59:32;;;;;;;6.87;4.40;;;;;;;7.82;60.01;100933.17;1668114;82;21366;-61
2021/10/24 03:01:59;;;;;;;4.73;3.53;;;;;;;7.81;60.13;100938.13;1692523;82;20958;-62
2021/10/24 03:04:25;;;;;;;8.30;4.93;;;;;;;7.79;60.27;100937.45;1642144;85;20971;-63
2021/10/24 03:06:51;;;;;;;7.20;4.83;;;;;;;7.77;60.15;100943.41;1617235;85;21069;-63
2021/10/24 03:09:17;;;;;;;5.25;4.30;;;;;;;7.75;60.36;100936.94;1684125;83;21061;-65
2021/10/24 03:11:43;;;;;;;7.17;5.00;;;;;;;7.74;60.52;100940.59;1639265;84;20985;-66
2021/10/24 03:14:14;;;;;;;6.33;3.90;;;;;;;7.72;60.47;100939.06;1659739;84;21547;-62
2021/10/24 03:16:41;;;;;;;5.63;3.60;;;;;;;7.70;60.64;100938.38;1681777;83;21484;-63
2021/10/24 03:19:07;;;;;;;5.47;4.47;;;;;;;7.70;60.85;100938.38;1639608;85;21486;-62
2021/10/24 03:21:33;;;;;;;6.75;3.58;;;;;;;7.67;60.70;100941.37;1676584;83;21553;-66
2021/10/24 03:24:01;;;;;;;;;;;;;;;7.71;60.64;100938.23;1660852;84;20972;-63
2021/10/24 03:26:28;;;;;;;6.60;3.27;;;;;;;7.80;60.47;100941.79;1626169;86;20121;-63
2021/10/24 03:28:55;;;;;;;6.93;3.90;;;;;;;7.82;60.49;100949.10;1662907;85;21116;-63
2021/10/24 03:31:21;;;;;;;5.95;3.85;;;;;;;7.84;60.39;100947.12;1632942;86;21467;-68
2021/10/24 03:33:48;;;;;;;7.97;3.90;;;;;;;7.85;60.38;100950.09;1654354;85;21027;-65
2021/10/24 03:36:15;;;;;;;5.70;3.95;;;;;;;7.86;60.45;100950.45;1661532;84;20966;-64
2021/10/24 03:38:42;;;;;;;;;;;;;;;7.81;60.61;100951.41;1680047;84;21517;-63
2021/10/24 03:41:09;;;;;;;5.28;4.15;;;;;;;7.74;60.60;100954.33;1679616;84;20099;-66
2021/10/24 03:43:35;;;;;;;10.03;4.90;;;;;;;7.49;60.79;100923.63;1620278;86;20963;-66
2021/10/24 03:46:01;;;;;;;8.40;5.70;;;;;;;7.67;60.97;100961.27;1691566;83;20931;-63
2021/10/24 03:48:27;;;;;;;5.25;4.28;;;;;;;7.65;60.92;100962.74;1698970;83;21055;-66
2021/10/24 03:50:53;;;;;;;7.85;4.85;;;;;;;7.66;61.08;100966.22;1692009;83;21342;-65
2021/10/24 03:53:20;;;;;;;9.70;5.12;;;;;;;7.65;61.12;100962.74;1693765;83;21570;-63
2021/10/24 03:55:46;;;;;;;7.12;4.42;;;;;;;7.62;61.13;100967.52;1693521;83;20948;-63
2021/10/24 03:58:14;;;;;;;6.53;4.65;;;;;;;7.60;61.23;100965.84;1656934;85;20971;-63
2021/10/24 04:00:44;;;;;;;8.87;5.03;;;;;;;7.58;61.42;100963.84;1691665;83;21034;-61
2021/10/24 04:03:11;;;;;;;5.83;3.80;;;;;;;7.54;61.37;100973.59;1694857;83;21820;-64
2021/10/24 04:05:46;;;;;;;6.60;4.07;;;;;;;7.51;61.43;100972.06;1693736;83;20982;-62
2021/10/24 04:08:07;;;;;;;8.03;3.83;;;;;;;7.52;61.52;100975.06;1667737;83;20946;-65
2021/10/24 04:10:34;;;;;;;4.83;3.90;;;;;;;7.60;61.41;100972.47;1694050;83;21033;-63
2021/10/24 04:13:00;;;;;;;7.22;4.05;;;;;;;7.30;61.32;100904.75;1693053;82;21454;-66
2021/10/24 04:15:27;;;;;;;9.53;4.05;;;;;;;7.64;61.38;100970.34;1696989;83;21314;-65
2021/10/24 04:17:53;;;;;;;7.03;3.73;;;;;;;7.60;61.43;100968.49;1696516;83;21576;-66
2021/10/24 04:20:22;;;;;;;9.20;5.00;;;;;;;7.59;61.52;100983.23;1673618;83;21018;-64
2021/10/24 04:22:50;;;;;;;6.67;4.57;;;;;;;7.57;61.54;100978.10;1713663;82;20959;-64
2021/10/24 04:25:17;;;;;;;6.50;4.00;;;;;;;7.55;61.67;100980.08;1688300;83;20958;-62
2021/10/24 04:27:44;;;;;;;5.00;4.60;;;;;;;7.52;61.65;100982.20;1682349;83;21137;-66
2021/10/24 04:30:13;;;;;;;6.57;4.43;;;;;;;7.50;61.83;100976.22;1675883;83;20951;-63
2021/10/24 04:32:41;;;;;;;5.87;4.25;;;;;;;7.48;61.94;100980.34;1670776;83;20969;-66
2021/10/24 04:35:10;;;;;;;10.23;5.07;;;;;;;7.45;62.11;100984.61;1696689;83;21498;-63
2021/10/24 04:37:36;;;;;;;7.87;3.87;;;;;;;7.43;62.20;100985.27;1683558;83;21517;-63
2021/10/24 04:40:05;;;;;;;11.15;4.75;;;;;;;7.45;62.19;100996.55;1693626;83;21509;-62
2021/10/24 04:42:36;;;;;;;10.47;6.03;;;;;;;7.52;62.11;100994.14;1695360;83;20997;-65
2021/10/24 04:45:05;;;;;;;7.70;4.77;;;;;;;7.51;62.23;100996.44;1693603;80;21002;-61
2021/10/24 04:47:31;;;;;;;7.47;4.30;;;;;;;7.47;62.27;100996.41;1730824;82;21533;-65
2021/10/24 04:49:57;;;;;;;;;;;;;;;7.44;62.41;101002.86;1702992;83;21025;-64
2021/10/24 04:52:23;;;;;;;8.57;4.50;;;;;;;7.43;62.50;101001.17;1694321;83;20515;-62
2021/10/24 04:54:50;;;;;;;7.62;4.22;;;;;;;7.37;62.62;101003.94;1698133;83;20991;-63
2021/10/24 04:57:15;;;;;;;4.70;4.00;;;;;;;7.38;62.72;101002.11;1697773;83;21488;-62
2021/10/24 04:59:42;;;;;;;5.45;4.20;;;;;;;7.36;62.84;101006.23;1703981;83;20990;-63
2021/10/24 05:02:08;;;;;;;6.33;4.57;;;;;;;7.35;62.66;101011.72;1690459;83;20986;-63
2021/10/24 05:04:34;;;;;;;9.38;6.03;;;;;;;7.33;62.95;101011.86;1702886;83;20954;-66
2021/10/24 05:07:00;;;;;;;8.88;5.05;;;;;;;7.35;62.89;101014.38;1699691;83;21013;-64
2021/10/24 05:09:26;;;;;;;9.33;5.33;;;;;;;7.43;62.63;101014.44;1699294;83;20947;-63
2021/10/24 05:11:53;;;;;;;9.30;4.42;;;;;;;7.44;62.49;101018.77;1691550;83;20997;-65
2021/10/24 05:14:20;;;;;;;9.77;5.57;;;;;;;7.44;62.49;101018.77;1672922;83;21038;-74
2021/10/24 05:16:46;;;;;;;7.10;4.73;;;;;;;7.45;62.64;101027.05;1687840;83;20978;-64
2021/10/24 05:19:12;;;;;;;6.92;4.20;;;;;;;7.48;62.63;101027.23;1691635;83;20923;-64
2021/10/24 05:21:38;;;;;;;5.45;4.47;;;;;;;7.47;62.64;101038.84;1700792;83;21045;-65
2021/10/24 05:24:05;;;;;;;5.63;4.17;;;;;;;7.46;62.70;101042.00;1690285;82;21464;-62
2021/10/24 05:26:33;;;;;;;11.57;5.80;;;;;;;7.47;62.90;101049.45;1694159;83;21052;-64
2021/10/24 05:28:59;;;;;;;8.80;5.42;;;;;;;7.46;62.89;101058.38;1652015;85;21057;-66
2021/10/24 05:31:26;;;;;;;5.73;4.70;;;;;;;7.46;62.86;101065.88;1670324;83;20946;-67
2021/10/24 05:34:02;;;;;;;7.22;4.20;;;;;;;7.49;62.90;101069.53;1677634;83;21008;-60
2021/10/24 05:36:30;;;;;;;9.50;4.70;;;;;;;7.60;62.70;101061.35;1650826;83;21270;-63
2021/10/24 05:38:58;;;;;;;;;;;;;;;7.71;62.34;101071.42;1692105;83;21004;-66
2021/10/24 05:41:27;;;;;;;8.20;4.37;;;;;;;7.70;62.39;101075.04;1677981;83;20113;-64
2021/10/24 05:43:55;;;;;;;7.07;4.33;;;;;;;7.65;62.53;101079.95;1645879;85;21006;-63
2021/10/24 05:46:21;;;;;;;9.07;5.73;;;;;;;7.66;62.42;101083.80;1674976;82;21028;-65
2021/10/24 05:48:48;;;;;;;8.18;4.70;;;;;;;7.66;62.41;101081.64;1686339;83;20990;-63
2021/10/24 05:51:23;;;;;;;10.40;4.50;;;;;;;7.64;62.43;101099.03;1682676;83;20984;-66
2021/10/24 05:53:50;;;;;;;10.47;5.93;;;;;;;7.64;62.57;101090.25;1685649;84;20970;-66
2021/10/24 05:56:21;;;;;;;5.40;4.40;;;;;;;7.66;62.51;101104.20;1677359;83;21516;-64
2021/10/24 05:58:49;;;;;;;5.50;4.17;;;;;;;7.68;62.59;101100.90;1697325;83;20974;-65
2021/10/24 06:01:34;;;;;;;4.17;3.77;;;;;;;7.70;62.57;101102.91;1686455;83;21446;-66
2021/10/24 06:04:08;;;;;;;4.70;3.87;;;;;;;7.74;62.57;101102.47;1677492;83;21012;-62
2021/10/24 06:06:53;;;;;;;4.30;3.30;;;;;;;7.83;62.24;101101.21;1687085;83;21520;-61
2021/10/24 06:09:28;;;;;;;4.30;3.55;;;;;;;7.85;62.14;101113.83;1680373;83;21458;-68
2021/10/24 06:11:55;;;;;;;5.03;3.80;;;;;;;7.82;62.22;101121.62;1696554;82;21368;-69
2021/10/24 06:14:15;;;;;;;7.73;3.20;;;;;;;7.81;62.23;101121.27;1699570;83;21011;-67
2021/10/24 06:16:43;;;;;;;5.33;3.10;;;;;;;7.84;62.16;101124.13;1706483;83;20969;-64
2021/10/24 06:19:09;;;;;;;8.40;2.72;;;;;;;7.85;62.31;101135.06;1707842;83;21102;-62
2021/10/24 06:21:35;;;;;;;3.35;2.65;;;;;;;7.80;64.21;101133.70;1701013;83;21457;-61
2021/10/24 06:24:02;;;;;;;5.78;2.12;;;;;;;7.73;65.46;101141.09;1711646;82;21614;-65
2021/10/24 06:26:28;;;;;;;5.97;2.27;;;;;;;7.66;65.61;101134.21;1715213;83;20988;-66
2021/10/24 06:28:54;;;;;;;3.67;1.45;;;;;;;7.65;66.32;101138.34;1708865;82;21017;-66
2021/10/24 06:31:22;;;;;;;4.90;2.50;;;;;;;7.65;67.36;101142.31;1706200;83;21067;-62
2021/10/24 06:33:59;;;;;;;4.28;2.47;;;;;;;7.57;67.64;101139.94;1704027;82;20965;-64
2021/10/24 06:36:45;;;;;;;4.33;2.30;;;;;;;7.47;67.52;101144.95;1655767;84;20977;-61
2021/10/24 06:39:25;;;;;;;3.43;2.73;;;;;;;7.41;68.49;101155.16;1635917;85;21028;-68
2021/10/24 06:41:52;;;;;;;2.77;2.50;;;;;;;7.40;68.65;101157.95;1642588;85;20987;-62
2021/10/24 06:44:20;;;;;;;3.97;2.50;;;;;;;7.37;69.51;101152.47;1658554;85;21488;-65
2021/10/24 06:46:51;;;;;;;3.43;2.20;;;;;;;7.39;69.94;101151.83;1655789;85;21019;-65
2021/10/24 06:49:35;;;;;;;2.50;2.23;;;;;;;7.43;68.97;101155.02;1645175;85;20971;-62
2021/10/24 06:52:20;;;;;;;3.43;2.17;;;;;;;7.46;68.27;101157.39;1657413;85;21011;-62
2021/10/24 06:54:48;;;;;;;5.03;3.10;;;;;;;7.51;67.97;101165.72;1662694;85;21080;-64
2021/10/24 06:57:49;;;;;;;7.10;3.67;;;;;;;7.56;68.06;101171.42;1663940;85;20923;-65
2021/10/24 07:00:33;;;;;;;4.40;3.03;;;;;;;7.63;68.08;101170.81;1696039;82;21040;-65
2021/10/24 07:03:18;;;;;;;5.10;3.23;;;;;;;7.71;68.17;101178.89;1705971;82;21025;-65
2021/10/24 07:05:49;;;;;;;4.80;3.37;;;;;;;7.72;67.39;101179.22;1699116;83;21035;-63
2021/10/24 07:08:17;;;;;;;4.63;2.83;;;;;;;7.79;66.66;101181.63;1704850;82;20977;-64
2021/10/24 07:10:43;;;;;;;3.22;2.67;;;;;;;7.85;66.19;101181.52;1716471;82;20964;-66
2021/10/24 07:13:09;;;;;;;2.42;2.15;;;;;;;7.90;65.82;101185.89;1691832;83;20954;-64
2021/10/24 07:15:35;;;;;;;;;;;;;;;7.94;65.56;101182.77;1681237;83;21081;-64
2021/10/24 07:18:02;;;;;;;3.57;1.67;;;;;;;7.98;64.87;101182.81;1675075;83;20123;-67
2021/10/24 07:20:28;;;;;;;1.75;1.25;;;;;;;7.98;64.90;101188.12;1681622;83;21423;-63
2021/10/24 07:22:56;;;;;;;2.53;1.23;;;;;;;8.09;64.58;101184.92;1683640;83;21166;-60
2021/10/24 07:25:25;;;;;;;3.33;1.35;;;;;;;8.18;64.06;101189.33;1690603;83;21005;-67
2021/10/24 07:27:51;;;;;;;4.27;1.60;;;;;;;8.26;63.86;101188.56;1660875;84;21062;-63
2021/10/24 07:30:18;;;;;;;2.83;1.07;;;;;;;8.31;63.50;101188.45;1672181;84;20997;-66
2021/10/24 07:32:52;;;;;;;1.90;1.37;;;;;;;8.36;63.34;101199.93;1674642;83;21056;-65
2021/10/24 07:35:23;;;;;;;4.17;1.47;;;;;;;8.41;63.27;101190.19;1687464;83;21468;-66
2021/10/24 07:37:50;;;;;;;4.00;1.37;;;;;;;8.45;62.46;101200.38;1704596;82;21009;-66
2021/10/24 07:40:18;;;;;;;2.20;1.00;;;;;;;8.43;62.13;101200.20;1720094;82;20939;-63
2021/10/24 07:42:44;;;;;;;0.90;0.60;;;;;;;8.39;62.30;101193.82;1699234;82;21595;-63
2021/10/24 07:45:11;;;;;;;1.10;0.40;;;;;;;8.39;61.83;101201.79;1687934;83;21003;-63
2021/10/24 07:47:40;;;;;;;1.53;0.60;;;;;;;8.41;61.89;101203.47;1685978;84;21026;-63
2021/10/24 07:50:11;;;;;;;0.83;0.60;;;;;;;8.35;60.95;101211.05;1696538;83;21648;-66
2021/10/24 07:52:39;;;;;;;0.87;0.60;;;;;;;8.28;61.41;101219.79;1699739;83;21055;-65
2021/10/24 07:55:09;;;;;;;2.30;0.83;;;;;;;8.17;61.95;101215.05;1687012;82;20955;-68
2021/10/24 07:57:37;;;;;;;1.90;1.07;;;;;;;8.13;62.08;101218.15;1719935;82;21010;-70
2021/10/24 08:00:06;;;;;;;1.35;1.25;;;;;;;8.11;62.37;101219.62;1694455;83;21002;-64
2021/10/24 08:02:35;;;;;;;2.83;2.37;;;;;;;8.13;62.37;101220.80;1687987;82;21013;-63
2021/10/24 08:05:04;;;;;;;4.47;2.93;;;;;;;8.12;62.09;101217.32;1711844;82;21007;-68
2021/10/24 08:07:35;;;;;;;1.77;1.03;;;;;;;8.12;62.00;101217.32;1707463;82;21034;-67
2021/10/24 08:10:01;;;;;;;2.13;1.10;;;;;;;8.19;61.96;101224.17;1701533;82;20980;-64
2021/10/24 08:12:29;;;;;;;1.98;0.75;;;;;;;8.24;62.13;101219.25;1689905;82;20980;-66
2021/10/24 08:14:58;;;;;;;1.13;0.40;;;;;;;8.25;61.29;101226.72;1712553;83;20962;-71
2021/10/24 08:17:24;;;;;;;6.43;5.00;;;;;;;8.22;61.82;101234.51;1709346;83;21005;-64
2021/10/24 08:19:52;;;;;;;1.20;0.93;;;;;;;8.25;61.75;101229.38;1708077;82;20950;-70
2021/10/24 08:22:19;;;;;;;2.00;0.90;;;;;;;8.29;61.83;101239.56;1705452;83;21022;-64
2021/10/24 08:24:46;;;;;;;3.70;0.80;;;;;;;8.33;61.69;101238.77;1695377;83;21044;-66
2021/10/24 08:27:14;;;;;;;1.77;0.70;;;;;;;8.36;61.62;101240.64;1709088;83;21003;-72
2021/10/24 08:29:42;;;;;;;3.08;1.10;;;;;;;8.38;61.53;101245.30;1709382;83;20964;-64
2021/10/24 08:32:16;;;;;;;1.57;1.40;;;;;;;8.39;61.30;101242.97;1695044;83;20976;-65
2021/10/24 08:34:42;;;;;;;1.02;0.55;;;;;;;8.37;60.64;101240.95;1709704;82;20974;-64
2021/10/24 08:37:11;;;;;;;0.90;0.67;;;;;;;8.31;60.57;101239.42;1728877;82;21478;-64
2021/10/24 08:39:37;;;;;;;0.70;0.70;;;;;;;8.29;60.40;101240.89;1714531;81;20966;-67
2021/10/24 08:42:06;;;;;;;0.70;0.40;;;;;;;8.25;60.19;101243.98;1713987;82;21020;-68
2021/10/24 08:44:34;;;;;;;1.43;0.50;;;;;;;8.23;60.25;101246.81;1722135;81;21027;-77
2021/10/24 08:47:02;;;;;;;0.63;0.50;;;;;;;8.06;60.17;101221.91;1682558;83;21083;-65
2021/10/24 08:49:29;;;;;;;1.17;0.40;;;;;;;8.23;59.54;101249.94;1698748;83;21015;-67
2021/10/24 08:51:55;;;;;;;0.35;0.20;;;;;;;8.19;59.25;101248.08;1686733;83;20974;-73
2021/10/24 08:54:28;;;;;;;0.70;0.40;;;;;;;8.17;58.91;101260.67;1688561;83;20990;-69
2021/10/24 08:56:57;;;;;;;0.73;0.20;;;;;;;8.19;59.14;101266.67;1689749;83;21386;-67
2021/10/24 08:59:23;;;;;;;1.63;0.50;;;;;;;8.19;59.03;101260.89;1681962;83;21760;-64
2021/10/24 09:01:54;;;;;;;0.40;0.20;;;;;;;8.21;58.66;101254.07;1681224;82;20973;-64
2021/10/24 09:04:21;;;;;;;0.73;0.33;;;;;;;8.25;58.60;101267.42;1686528;83;21064;-68
2021/10/24 09:06:59;;;;;;;1.13;0.20;;;;;;;8.30;58.51;101269.11;1680713;83;21505;-66
2021/10/24 09:09:34;;;;;;;4.40;0.23;;;;;;;8.39;58.50;101280.16;1688849;83;20998;-64
2021/10/24 09:12:09;;;;;;;0.33;0.10;;;;;;;8.25;60.73;101275.86;1683966;83;21472;-66
2021/10/24 09:14:52;;;;;;;4.77;0.20;;;;;;;8.02;61.99;101296.69;1680265;84;20958;-68
2021/10/24 09:17:24;;;;;;;1.87;0.23;;;;;;;7.88;63.14;101303.34;1686681;83;21413;-64
2021/10/24 09:20:01;;;;;;;2.73;0.80;;;;;;;7.78;65.75;101302.06;1676337;84;20980;-66
2021/10/24 09:22:33;;;;;;;0.20;0.20;;;;;;;7.56;66.62;101316.52;1680680;82;21456;-65
2021/10/24 09:25:19;;;;;;;0.30;0.20;;;;;;;7.36;67.51;101311.74;1673461;84;21012;-63
2021/10/24 09:27:53;;;;;;;0.77;0.20;;;;;;;7.16;68.36;101317.59;1677979;84;20966;-64
2021/10/24 09:30:28;;;;;;;0.30;0.20;;;;;;;7.01;69.08;101317.19;1666863;84;21632;-67
2021/10/24 09:33:02;;;;;;;0.70;0.10;;;;;;;6.96;71.32;101317.59;1645114;85;20974;-66
2021/10/24 09:35:40;;;;;;;0.30;0.10;;;;;;;7.00;71.76;101317.66;1634832;85;21044;-68
2021/10/24 09:38:19;;;;;;;0.97;0.50;;;;;;;7.07;71.79;101320.59;1626244;87;21013;-69
2021/10/24 09:40:56;;;;;;;0.60;0.10;;;;;;;7.14;71.42;101317.73;1670228;84;21118;-64
2021/10/24 09:43:26;;;;;;;0.80;0.30;;;;;;;7.15;70.54;101322.04;1668420;84;20982;-65
2021/10/24 09:46:04;;;;;;;2.33;0.50;;;;;;;7.17;70.30;101324.55;1691657;83;21135;-66
2021/10/24 09:48:33;;;;;;;2.50;1.23;;;;;;;7.23;70.59;101320.00;1708470;82;21035;-64
2021/10/24 09:51:03;;;;;;;1.00;0.63;;;;;;;7.30;70.05;101322.94;1711955;83;21024;-66
2021/10/24 09:53:35;;;;;;;4.10;0.80;;;;;;;7.38;70.46;101319.92;1711471;82;20949;-68
2021/10/24 09:56:15;;;;;;;2.10;1.10;;;;;;;7.55;69.31;101315.69;1697877;83;20964;-68
2021/10/24 09:58:44;;;;;;;2.73;0.40;;;;;;;7.69;68.50;101306.91;1695118;82;21324;-65
2021/10/24 10:01:15;;;;;;;0.70;0.60;;;;;;;7.76;67.99;101306.18;1707463;82;21404;-80
2021/10/24 10:03:47;;;;;;;0.70;0.70;;;;;;;7.90;67.60;101306.17;1741903;81;21067;-66
2021/10/24 10:06:14;;;;;;;0.70;0.43;;;;;;;7.99;66.86;101297.33;1742530;81;20959;-66
2021/10/24 10:08:44;;;;;;;2.30;0.97;;;;;;;8.10;66.63;101299.42;1691341;82;20961;-69
2021/10/24 10:11:30;;;;;;;1.70;0.53;;;;;;;8.20;66.76;101292.25;1723120;81;20971;-65
2021/10/24 10:14:04;;;;;;;0.60;0.40;;;;;;;8.26;65.83;101294.80;1738639;81;20963;-63
2021/10/24 10:16:36;;;;;;;2.83;0.40;;;;;;;8.29;64.89;101298.00;1725105;81;21042;-68
2021/10/24 10:19:05;;;;;;;2.20;0.30;;;;;;;8.37;64.99;101293.27;1731411;81;20947;-64
2021/10/24 10:21:39;;;;;;;0.97;0.67;;;;;;;8.42;64.24;101302.13;1673707;85;20944;-68
2021/10/24 10:24:10;;;;;;;0.50;0.47;;;;;;;8.41;64.18;101305.76;1640290;85;21010;-70
2021/10/24 10:26:43;;;;;;;1.10;0.80;;;;;;;8.44;63.95;101298.83;1691514;84;20988;-67
2021/10/24 10:29:13;;;;;;;0.43;0.43;;;;;;;8.50;62.82;101300.41;1644148;86;21078;-71
2021/10/24 10:31:52;;;;;;;0.73;0.20;;;;;;;8.57;62.13;101305.45;1628027;86;21025;-67
2021/10/24 10:34:18;;;;;;;1.00;0.30;;;;;;;8.63;59.27;101298.70;1634489;84;20982;-67
2021/10/24 10:36:50;;;;;;;0.20;0.10;;;;;;;8.65;58.39;101304.70;1715374;83;20976;-66
2021/10/24 10:39:37;;;;;;;0.23;0.10;;;;;;;8.67;57.36;101300.56;1711712;82;21034;-66
2021/10/24 10:42:28;;;;;;;0.10;0.10;;;;;;;8.64;55.68;101301.69;1713000;82;20949;-69
2021/10/24 10:45:18;;;;;;;2.63;0.30;;;;;;;8.55;54.57;101310.56;1713247;82;21499;-65
2021/10/24 10:47:58;;;;;;;0.20;0.10;;;;;;;8.48;55.11;101316.16;1710660;82;21062;-68
2021/10/24 10:50:39;;;;;;;0.10;0.10;;;;;;;8.30;55.90;101289.03;1692942;82;20980;-67
2021/10/24 10:53:08;;;;;;;2.53;0.10;;;;;;;8.52;56.03;101309.05;1707269;82;21549;-63
2021/10/24 10:56:08;;;;;;;0.67;0.30;;;;;;;8.56;53.72;101310.92;1695885;82;21488;-63
2021/10/24 10:58:36;;;;;;;0.10;0.10;;;;;;;8.56;53.68;101314.91;1671149;84;20975;-67
2021/10/24 11:01:21;;;;;;;0.30;0.10;;;;;;;8.53;53.63;101320.51;1693344;83;21054;-66
2021/10/24 11:03:56;;;;;;;0.73;0.27;;;;;;;8.54;53.74;101324.34;1698834;83;20988;-65
2021/10/24 11:06:28;;;;;;;0.83;0.20;;;;;;;8.58;53.69;101326.22;1699947;83;21019;-64
2021/10/24 11:09:10;;;;;;;0.30;0.10;;;;;;;8.64;53.71;101323.45;1717989;82;21392;-64
2021/10/24 11:11:44;;;;;;;0.63;0.20;;;;;;;8.63;52.40;101314.64;1710272;82;21484;-64
2021/10/24 11:14:20;;;;;;;0.27;0.20;;;;;;;8.60;52.54;101324.74;1689408;83;21495;-65
2021/10/24 11:16:52;;;;;;;0.30;0.10;;;;;;;8.54;52.51;101330.17;1710218;83;20993;-67
2021/10/24 11:19:36;;;;;;;0.70;0.20;;;;;;;8.50;53.22;101336.27;1717073;82;21015;-65
2021/10/24 11:22:12;;;;;;;1.20;0.20;;;;;;;8.51;53.03;101332.64;1712527;82;21016;-68
2021/10/24 11:24:49;;;;;;;0.20;0.17;;;;;;;8.56;52.73;101341.48;1700742;82;21052;-71
2021/10/24 11:27:20;;;;;;;0.75;0.42;;;;;;;8.57;52.74;101340.00;1698420;83;20976;-65
2021/10/24 11:29:54;;;;;;;0.57;0.30;;;;;;;8.57;52.75;101337.85;1702523;83;21099;-66
2021/10/24 11:32:35;;;;;;;0.30;0.20;;;;;;;8.59;52.72;101341.19;1697251;83;20983;-66
2021/10/24 11:35:11;;;;;;;1.00;0.90;;;;;;;8.60;52.85;101350.81;1717555;83;20957;-68
2021/10/24 11:37:50;;;;;;;1.53;0.30;;;;;;;8.56;51.74;101348.13;1700720;83;20948;-65
2021/10/24 11:40:33;;;;;;;0.77;0.20;;;;;;;8.48;52.02;101363.48;1705082;83;21024;-63
2021/10/24 11:43:07;;;;;;;0.30;0.10;;;;;;;8.43;51.68;101356.45;1717560;83;21381;-64
2021/10/24 11:45:44;;;;;;;0.40;0.10;;;;;;;8.36;51.80;101365.96;1715935;82;20956;-68
2021/10/24 11:48:18;;;;;;;0.20;0.10;;;;;;;8.33;51.60;101371.59;1715705;82;21492;-67
2021/10/24 11:50:52;;;;;;;0.30;0.10;;;;;;;8.27;51.66;101367.70;1700421;83;21023;-67